Time;durP1;ratioP1;P1;durP2;ratioP2;P2;SDS_P1;SDS_P2;PMS_P1;PMS_P2;Temp;Humidity;BMP_temperature;BMP_pressure;BME280_temperature;BME280_humidity;BME280_pressure;Samples;Min_cycle;Max_cycle;Signal;HPM_P1;HPM_P2
2021/12/23 00:00:10;;;;;;;;;;;;;;;;;;2090054;28;20326;-85
2021/12/23 00:01:10;;;;;;;;;;;;;;;;;;2089856;28;19943;-84
2021/12/23 00:02:10;;;;;;;;;;;;;;;;;;2090041;28;19943;-83
2021/12/23 00:03:10;;;;;;;;;;;;;;;;;;2089929;28;19932;-84
2021/12/23 00:04:12;;;;;;;;;;;;;;;;;;2089425;28;19951;-85
2021/12/23 00:05:12;;;;;;;;;;;;;;;;;;2089520;28;19913;-84
2021/12/23 00:06:15;;;;;;;;;;;;;;;;;;2089930;28;20388;-85
2021/12/23 00:07:15;;;;;;;;;;;;;;;;;;2089992;28;19923;-84
2021/12/23 00:08:15;;;;;;;;;;;;;;;;;;2089965;28;19916;-84
2021/12/23 00:09:16;;;;;;;;;;;;;;;;;;2089910;28;19917;-84
2021/12/23 00:10:16;;;;;;;;;;;;;;;;;;2089909;28;19944;-85
2021/12/23 00:11:16;;;;;;;;;;;;;;;;;;2089892;28;20008;-84
2021/12/23 00:12:17;;;;;;;;;;;;;;;;;;2081185;28;19924;-84
2021/12/23 00:13:17;;;;;;;;;;;;;;;;;;2081272;28;19921;-85
2021/12/23 00:14:17;;;;;;;;;;;;;;;;;;2090090;28;20300;-84
2021/12/23 00:15:30;;;;;;;;;;;;;;;;;;2089825;28;20183;-84
2021/12/23 00:16:55;;;;;;;;;;;;;;;;;;2089860;28;19948;-84
2021/12/23 00:17:59;;;;;;;;;;;;;;;;;;2089855;28;19927;-84
2021/12/23 00:19:05;;;;;;;;;;;;;;;;;;2089825;28;19974;-84
2021/12/23 00:23:47;;;;;;;;;;;;;;;;;;2089931;28;19948;-84
2021/12/23 00:24:47;;;;;;;;;;;;;;;;;;2089940;28;19917;-84
2021/12/23 00:25:48;;;;;;;;;;;;;;;;;;2089752;28;20011;-84
2021/12/23 00:26:48;;;;;;;;;;;;;;;;;;2089831;28;20004;-84
2021/12/23 00:27:48;;;;;;;;;;;;;;;;;;2089841;28;20316;-84
2021/12/23 00:28:49;;;;;;;;;;;;;;;;;;2089812;28;19912;-84
2021/12/23 00:29:49;;;;;;;;;;;;;;;;;;2089834;28;19928;-84
2021/12/23 00:30:49;;;;;;;;;;;;;;;;;;2089942;28;20042;-84
2021/12/23 00:31:50;;;;;;;;;;;;;;;;;;2089803;28;20400;-84
2021/12/23 00:32:50;;;;;;;;;;;;;;;;;;2089774;28;20258;-84
2021/12/23 00:33:50;;;;;;;;;;;;;;;;;;2089807;28;19913;-84
2021/12/23 00:34:50;;;;;;;;;;;;;;;;;;2089760;28;19924;-84
2021/12/23 00:35:53;;;;;;;;;;;;;;;;;;2089821;28;20343;-84
2021/12/23 00:36:55;;;;;;;;;;;;;;;;;;2089807;28;19927;-84
2021/12/23 00:38:00;;;;;;;;;;;;;;;;;;2089902;28;20403;-84
2021/12/23 00:39:02;;;;;;;;;;;;;;;;;;2089738;28;19943;-83
2021/12/23 00:40:03;;;;;;;;;;;;;;;;;;2089794;28;19920;-84
2021/12/23 00:41:04;;;;;;;;;;;;;;;;;;2081024;28;19919;-84
2021/12/23 00:42:08;;;;;;;;;;;;;;;;;;2081151;28;20108;-83
2021/12/23 00:43:08;;;;;;;;;;;;;;;;;;2089765;28;19946;-85
2021/12/23 00:44:09;;;;;;;;;;;;;;;;;;2089778;28;19971;-85
2021/12/23 00:45:09;;;;;;;;;;;;;;;;;;2089808;28;19913;-85
2021/12/23 00:46:09;;;;;;;;;;;;;;;;;;2089789;28;19913;-85
2021/12/23 00:47:10;;;;;;;;;;;;;;;;;;2089756;28;19920;-84
2021/12/23 00:48:10;;;;;;;;;;;;;;;;;;2089809;28;20358;-85
2021/12/23 00:49:13;;;;;;;;;;;;;;;;;;2089763;28;19999;-85
2021/12/23 00:50:13;;;;;;;;;;;;;;;;;;2089721;28;19913;-84
2021/12/23 00:51:14;;;;;;;;;;;;;;;;;;2089723;28;19913;-85
2021/12/23 00:52:17;;;;;;;;;;;;;;;;;;2089703;28;19913;-85
2021/12/23 00:53:20;;;;;;;;;;;;;;;;;;2089674;28;20255;-85
2021/12/23 00:54:20;;;;;;;;;;;;;;;;;;2089196;28;19913;-83
2021/12/23 00:55:21;;;;;;;;;;;;;;;;;;2089397;28;19964;-84
2021/12/23 00:56:21;;;;;;;;;;;;;;;;;;2089398;28;20008;-82
2021/12/23 00:57:27;;;;;;;;;;;;;;;;;;2081174;28;19957;-84
2021/12/23 00:58:27;;;;;;;;;;;;;;;;;;2081715;28;19942;-84
2021/12/23 00:59:27;;;;;;;;;;;;;;;;;;2089724;28;19943;-83
2021/12/23 01:00:28;;;;;;;;;;;;;;;;;;2080879;28;20015;-83
2021/12/23 01:01:28;;;;;;;;;;;;;;;;;;2081038;28;20325;-83
2021/12/23 01:02:31;;;;;;;;;;;;;;;;;;2089080;28;19999;-84
2021/12/23 01:03:31;;;;;;;;;;;;;;;;;;2089311;28;19995;-84
2021/12/23 01:04:32;;;;;;;;;;;;;;;;;;2089669;28;19920;-84
2021/12/23 01:05:33;;;;;;;;;;;;;;;;;;2089631;28;20373;-84
2021/12/23 01:06:33;;;;;;;;;;;;;;;;;;2089639;28;20346;-84
2021/12/23 01:07:33;;;;;;;;;;;;;;;;;;2089660;28;19913;-84
2021/12/23 01:08:34;;;;;;;;;;;;;;;;;;2089115;28;20189;-84
2021/12/23 01:09:34;;;;;;;;;;;;;;;;;;2089248;28;20000;-84
2021/12/23 01:10:35;;;;;;;;;;;;;;;;;;2089744;28;19920;-85
2021/12/23 01:11:35;;;;;;;;;;;;;;;;;;2080898;28;19975;-85
2021/12/23 01:12:47;;;;;;;;;;;;;;;;;;2080866;28;19913;-84
2021/12/23 01:14:00;;;;;;;;;;;;;;;;;;2089273;28;19913;-84
2021/12/23 01:15:14;;;;;;;;;;;;;;;;;;2089094;28;19912;-85
2021/12/23 01:16:25;;;;;;;;;;;;;;;;;;2089366;28;19931;-84
2021/12/23 01:18:30;;;;;;;;;;;;;;;;;;2089508;28;20032;-85
2021/12/23 01:19:38;;;;;;;;;;;;;;;;;;2089618;28;19947;-84
2021/12/23 01:20:40;;;;;;;;;;;;;;;;;;2089587;28;19913;-85
2021/12/23 01:21:40;;;;;;;;;;;;;;;;;;2089755;28;20007;-85
2021/12/23 01:22:41;;;;;;;;;;;;;;;;;;2080865;28;19920;-84
2021/12/23 01:23:43;;;;;;;;;;;;;;;;;;2080846;28;20413;-85
2021/12/23 01:24:44;;;;;;;;;;;;;;;;;;2089096;28;20145;-85
2021/12/23 01:25:44;;;;;;;;;;;;;;;;;;2089080;28;19923;-84
2021/12/23 01:26:45;;;;;;;;;;;;;;;;;;2089598;28;19917;-84
2021/12/23 01:27:45;;;;;;;;;;;;;;;;;;2089643;28;19927;-85
2021/12/23 01:28:47;;;;;;;;;;;;;;;;;;2089685;28;19931;-84
2021/12/23 01:29:47;;;;;;;;;;;;;;;;;;2091022;28;20362;-83
2021/12/23 01:30:47;;;;;;;;;;;;;;;;;;2092195;28;19928;-84
2021/12/23 01:31:47;;;;;;;;;;;;;;;;;;2095377;28;19947;-83
2021/12/23 01:32:49;;;;;;;;;;;;;;;;;;2087901;28;20010;-86
2021/12/23 01:33:49;;;;;;;;;;;;;;;;;;2087778;28;19960;-85
2021/12/23 01:34:49;;;;;;;;;;;;;;;;;;2084407;28;19923;-84
2021/12/23 01:35:50;;;;;;;;;;;;;;;;;;2080905;28;20354;-85
2021/12/23 01:36:50;;;;;;;;;;;;;;;;;;2089416;28;19917;-85
2021/12/23 01:37:50;;;;;;;;;;;;;;;;;;2089590;28;20364;-84
2021/12/23 01:38:51;;;;;;;;;;;;;;;;;;2089463;28;19921;-84
2021/12/23 01:39:51;;;;;;;;;;;;;;;;;;2081326;28;19983;-84
2021/12/23 01:40:51;;;;;;;;;;;;;;;;;;2082432;28;20377;-85
2021/12/23 01:41:52;;;;;;;;;;;;;;;;;;2090935;28;19920;-85
2021/12/23 01:42:52;;;;;;;;;;;;;;;;;;2091016;28;19913;-85
2021/12/23 01:43:52;;;;;;;;;;;;;;;;;;2090985;28;19928;-85
2021/12/23 01:44:53;;;;;;;;;;;;;;;;;;2090996;28;19920;-83
2021/12/23 01:45:53;;;;;;;;;;;;;;;;;;2090872;28;20281;-83
2021/12/23 01:46:53;;;;;;;;;;;;;;;;;;2082283;28;19913;-83
2021/12/23 01:47:54;;;;;;;;;;;;;;;;;;2082197;28;20008;-85
2021/12/23 01:48:54;;;;;;;;;;;;;;;;;;2091003;28;19978;-85
2021/12/23 01:49:54;;;;;;;;;;;;;;;;;;2090914;28;19927;-85
2021/12/23 01:50:55;;;;;;;;;;;;;;;;;;2090982;28;19916;-85
2021/12/23 01:51:55;;;;;;;;;;;;;;;;;;2090956;28;19924;-84
2021/12/23 01:52:57;;;;;;;;;;;;;;;;;;2090890;28;19962;-85
2021/12/23 01:53:57;;;;;;;;;;;;;;;;;;2090905;28;20316;-84
2021/12/23 01:54:57;;;;;;;;;;;;;;;;;;2091043;28;19952;-85
2021/12/23 01:55:58;;;;;;;;;;;;;;;;;;2082187;28;20363;-85
2021/12/23 01:56:59;;;;;;;;;;;;;;;;;;2082286;28;19917;-85
2021/12/23 01:57:59;;;;;;;;;;;;;;;;;;2090909;28;19945;-85
2021/12/23 01:58:59;;;;;;;;;;;;;;;;;;2091118;28;19936;-85
2021/12/23 02:00:01;;;;;;;;;;;;;;;;;;2082247;28;19913;-77
2021/12/23 02:01:01;;;;;;;;;;;;;;;;;;2082209;28;19913;-76
2021/12/23 02:02:01;;;;;;;;;;;;;;;;;;2090508;28;19935;-74
2021/12/23 02:03:02;;;;;;;;;;;;;;;;;;2090855;28;19912;-76
2021/12/23 02:04:02;;;;;;;;;;;;;;;;;;2090397;28;19925;-75
2021/12/23 02:05:03;;;;;;;;;;;;;;;;;;2090413;28;19948;-77
2021/12/23 02:06:04;;;;;;;;;;;;;;;;;;2090709;28;19917;-76
2021/12/23 02:07:04;;;;;;;;;;;;;;;;;;2090797;28;19952;-76
2021/12/23 02:08:04;;;;;;;;;;;;;;;;;;2090879;28;19913;-76
2021/12/23 02:09:05;;;;;;;;;;;;;;;;;;2090823;28;19913;-77
2021/12/23 02:10:07;;;;;;;;;;;;;;;;;;2090301;28;20298;-77
2021/12/23 02:11:09;;;;;;;;;;;;;;;;;;2090343;28;19978;-76
2021/12/23 02:12:09;;;;;;;;;;;;;;;;;;2090957;28;19912;-77
2021/12/23 02:13:10;;;;;;;;;;;;;;;;;;2090730;28;20005;-77
2021/12/23 02:14:10;;;;;;;;;;;;;;;;;;2090799;28;19913;-77
2021/12/23 02:15:11;;;;;;;;;;;;;;;;;;2090731;28;19913;-77
2021/12/23 02:16:11;;;;;;;;;;;;;;;;;;2090697;28;20075;-77
2021/12/23 02:17:11;;;;;;;;;;;;;;;;;;2090687;28;19939;-77
2021/12/23 02:18:12;;;;;;;;;;;;;;;;;;2090893;28;20285;-76
2021/12/23 02:19:16;;;;;;;;;;;;;;;;;;2081982;28;20003;-77
2021/12/23 02:20:18;;;;;;;;;;;;;;;;;;2082575;28;20119;-76
2021/12/23 02:21:18;;;;;;;;;;;;;;;;;;2090701;28;20003;-77
2021/12/23 02:22:18;;;;;;;;;;;;;;;;;;2090721;28;20277;-77
2021/12/23 02:23:19;;;;;;;;;;;;;;;;;;2090663;28;20254;-76
2021/12/23 02:24:19;;;;;;;;;;;;;;;;;;2090687;28;19913;-76
2021/12/23 02:25:19;;;;;;;;;;;;;;;;;;2090618;28;19999;-77
2021/12/23 02:26:20;;;;;;;;;;;;;;;;;;2090589;28;20262;-76
2021/12/23 02:27:20;;;;;;;;;;;;;;;;;;2090741;28;19921;-76
2021/12/23 02:28:21;;;;;;;;;;;;;;;;;;2090666;28;19936;-76
2021/12/23 02:29:21;;;;;;;;;;;;;;;;;;2090620;28;19923;-77
2021/12/23 02:30:23;;;;;;;;;;;;;;;;;;2090564;28;19912;-77
2021/12/23 02:31:23;;;;;;;;;;;;;;;;;;2090594;28;19916;-76
2021/12/23 02:32:24;;;;;;;;;;;;;;;;;;2090677;28;20022;-76
2021/12/23 02:33:25;;;;;;;;;;;;;;;;;;2090639;28;20384;-76
2021/12/23 02:34:25;;;;;;;;;;;;;;;;;;2090599;28;19932;-77
2021/12/23 02:35:26;;;;;;;;;;;;;;;;;;2081705;28;19913;-76
2021/12/23 02:36:26;;;;;;;;;;;;;;;;;;2081729;28;19917;-77
2021/12/23 02:37:27;;;;;;;;;;;;;;;;;;2090041;28;19931;-77
2021/12/23 02:38:27;;;;;;;;;;;;;;;;;;2081856;28;19913;-76
2021/12/23 02:39:28;;;;;;;;;;;;;;;;;;2090655;28;19913;-76
2021/12/23 02:40:28;;;;;;;;;;;;;;;;;;2090038;28;19924;-77
2021/12/23 02:41:29;;;;;;;;;;;;;;;;;;2081860;28;19967;-75
2021/12/23 02:42:29;;;;;;;;;;;;;;;;;;2081797;28;19913;-76
2021/12/23 02:43:29;;;;;;;;;;;;;;;;;;2090541;28;20332;-77
2021/12/23 02:44:30;;;;;;;;;;;;;;;;;;2090485;28;20020;-76
2021/12/23 02:45:30;;;;;;;;;;;;;;;;;;2090537;28;19924;-77
2021/12/23 02:46:30;;;;;;;;;;;;;;;;;;2081732;28;20354;-77
2021/12/23 02:47:31;;;;;;;;;;;;;;;;;;2081927;28;20006;-76
2021/12/23 02:48:34;;;;;;;;;;;;;;;;;;2090023;28;20398;-75
2021/12/23 02:49:34;;;;;;;;;;;;;;;;;;2090680;28;19957;-76
2021/12/23 02:50:34;;;;;;;;;;;;;;;;;;2090397;28;19920;-76
2021/12/23 02:51:35;;;;;;;;;;;;;;;;;;2089415;28;19986;-76
2021/12/23 02:52:36;;;;;;;;;;;;;;;;;;2090429;28;19917;-77
2021/12/23 02:53:37;;;;;;;;;;;;;;;;;;2090409;28;20255;-77
2021/12/23 02:54:37;;;;;;;;;;;;;;;;;;2090401;28;20013;-76
2021/12/23 02:55:38;;;;;;;;;;;;;;;;;;2090414;28;19913;-76
2021/12/23 02:56:38;;;;;;;;;;;;;;;;;;2089793;28;20000;-75
2021/12/23 02:57:38;;;;;;;;;;;;;;;;;;2089978;28;19913;-76
2021/12/23 02:58:39;;;;;;;;;;;;;;;;;;2090336;28;20007;-76
2021/12/23 02:59:39;;;;;;;;;;;;;;;;;;2090339;28;19979;-76
2021/12/23 03:00:40;;;;;;;;;;;;;;;;;;2090337;28;19913;-76
2021/12/23 03:01:41;;;;;;;;;;;;;;;;;;2081492;28;20010;-76
2021/12/23 03:02:41;;;;;;;;;;;;;;;;;;2081701;28;19917;-76
2021/12/23 03:03:43;;;;;;;;;;;;;;;;;;2089867;28;20344;-76
2021/12/23 03:04:44;;;;;;;;;;;;;;;;;;2089813;28;19947;-75
2021/12/23 03:05:54;;;;;;;;;;;;;;;;;;2090219;28;19946;-76
2021/12/23 03:06:55;;;;;;;;;;;;;;;;;;2090526;28;20032;-75
2021/12/23 03:07:57;;;;;;;;;;;;;;;;;;2081472;28;19916;-75
2021/12/23 03:08:59;;;;;;;;;;;;;;;;;;2081754;28;20289;-76
2021/12/23 03:09:59;;;;;;;;;;;;;;;;;;2081449;28;19924;-76
2021/12/23 03:11:00;;;;;;;;;;;;;;;;;;2081565;28;20370;-76
2021/12/23 03:12:00;;;;;;;;;;;;;;;;;;2090190;28;20058;-76
2021/12/23 03:13:00;;;;;;;;;;;;;;;;;;2090215;28;19913;-75
2021/12/23 03:14:01;;;;;;;;;;;;;;;;;;2090254;28;20360;-75
2021/12/23 03:15:01;;;;;;;;;;;;;;;;;;2090262;28;19913;-76
2021/12/23 03:16:02;;;;;;;;;;;;;;;;;;2090015;28;19920;-75
2021/12/23 03:17:02;;;;;;;;;;;;;;;;;;2090243;28;19912;-76
2021/12/23 03:18:02;;;;;;;;;;;;;;;;;;2090137;28;19912;-76
2021/12/23 03:19:03;;;;;;;;;;;;;;;;;;2090256;28;19912;-75
2021/12/23 03:20:04;;;;;;;;;;;;;;;;;;2090095;28;20361;-77
2021/12/23 03:21:05;;;;;;;;;;;;;;;;;;2090254;28;19921;-77
2021/12/23 03:22:12;;;;;;;;;;;;;;;;;;2090635;28;19912;-86
2021/12/23 03:23:12;;;;;;;;;;;;;;;;;;2090099;28;20366;-76
2021/12/23 03:24:15;;;;;;;;;;;;;;;;;;2089686;28;19932;-76
2021/12/23 03:25:15;;;;;;;;;;;;;;;;;;2090150;28;19913;-76
2021/12/23 03:26:15;;;;;;;;;;;;;;;;;;2090061;28;19933;-76
2021/12/23 03:29:03;;;;;;;;;;;;;;;;;;2090015;28;19917;-78
2021/12/23 03:30:04;;;;;;;;;;;;;;;;;;2089806;28;20016;-85
2021/12/23 03:31:04;;;;;;;;;;;;;;;;;;2089743;28;20432;-85
2021/12/23 03:32:07;;;;;;;;;;;;;;;;;;2090492;28;19917;-86
2021/12/23 03:33:20;;;;;;;;;;;;;;;;;;2090690;28;19912;-84
2021/12/23 03:34:21;;;;;;;;;;;;;;;;;;2090755;28;20286;-77
2021/12/23 03:35:24;;;;;;;;;;;;;;;;;;2090877;28;19913;-85
2021/12/23 03:36:24;;;;;;;;;;;;;;;;;;2089923;28;20281;-85
2021/12/23 03:37:32;;;;;;;;;;;;;;;;;;2090578;28;19913;-86
2021/12/23 03:38:32;;;;;;;;;;;;;;;;;;2090186;28;19982;-86
2021/12/23 03:39:32;;;;;;;;;;;;;;;;;;2090260;28;19978;-86
2021/12/23 03:40:33;;;;;;;;;;;;;;;;;;2090148;28;20015;-86
2021/12/23 03:41:33;;;;;;;;;;;;;;;;;;2090290;28;20228;-86
2021/12/23 03:42:33;;;;;;;;;;;;;;;;;;2090179;28;20022;-86
2021/12/23 03:43:34;;;;;;;;;;;;;;;;;;2090099;28;19913;-86
2021/12/23 03:44:34;;;;;;;;;;;;;;;;;;2089592;28;19924;-85
2021/12/23 03:45:34;;;;;;;;;;;;;;;;;;2089736;28;20358;-85
2021/12/23 03:46:37;;;;;;;;;;;;;;;;;;2090709;28;20019;-85
2021/12/23 03:47:37;;;;;;;;;;;;;;;;;;2082575;28;20397;-85
2021/12/23 03:48:38;;;;;;;;;;;;;;;;;;2083137;28;19913;-84
2021/12/23 03:49:38;;;;;;;;;;;;;;;;;;2094650;28;19980;-86
2021/12/23 03:50:38;;;;;;;;;;;;;;;;;;2095203;28;19997;-86
2021/12/23 03:51:38;;;;;;;;;;;;;;;;;;2094911;28;20362;-86
2021/12/23 03:52:39;;;;;;;;;;;;;;;;;;2092220;28;19975;-86
2021/12/23 03:53:39;;;;;;;;;;;;;;;;;;2090012;28;19912;-86
2021/12/23 03:54:39;;;;;;;;;;;;;;;;;;2090192;28;19912;-86
2021/12/23 03:55:40;;;;;;;;;;;;;;;;;;2090103;28;20413;-86
2021/12/23 03:56:41;;;;;;;;;;;;;;;;;;2090007;28;19979;-86
2021/12/23 03:57:42;;;;;;;;;;;;;;;;;;2090091;28;19943;-86
2021/12/23 03:58:42;;;;;;;;;;;;;;;;;;2090247;28;19979;-86
2021/12/23 03:59:42;;;;;;;;;;;;;;;;;;2081201;28;19927;-86
2021/12/23 04:00:43;;;;;;;;;;;;;;;;;;2081433;28;19913;-86
2021/12/23 04:01:43;;;;;;;;;;;;;;;;;;2089505;28;19940;-86
2021/12/23 04:02:44;;;;;;;;;;;;;;;;;;2089766;28;19913;-86
2021/12/23 04:03:48;;;;;;;;;;;;;;;;;;2089387;28;19912;-86
2021/12/23 04:04:48;;;;;;;;;;;;;;;;;;2089580;28;19920;-85
2021/12/23 04:05:48;;;;;;;;;;;;;;;;;;2081126;28;20353;-86
2021/12/23 04:06:49;;;;;;;;;;;;;;;;;;2081300;28;19960;-86
2021/12/23 04:07:49;;;;;;;;;;;;;;;;;;2089472;28;19928;-85
2021/12/23 04:08:49;;;;;;;;;;;;;;;;;;2089870;28;19913;-86
2021/12/23 04:09:49;;;;;;;;;;;;;;;;;;2089892;28;20301;-85
2021/12/23 04:10:50;;;;;;;;;;;;;;;;;;2089990;28;19924;-86
2021/12/23 04:11:50;;;;;;;;;;;;;;;;;;2089894;28;20334;-85
2021/12/23 04:12:51;;;;;;;;;;;;;;;;;;2089878;28;20287;-86
2021/12/23 04:13:53;;;;;;;;;;;;;;;;;;2089847;28;19912;-85
2021/12/23 04:14:53;;;;;;;;;;;;;;;;;;2089250;28;19916;-86
2021/12/23 04:15:54;;;;;;;;;;;;;;;;;;2089412;28;19917;-85
2021/12/23 04:16:54;;;;;;;;;;;;;;;;;;2081034;28;19979;-86
2021/12/23 04:17:54;;;;;;;;;;;;;;;;;;2081151;28;19913;-86
2021/12/23 04:18:55;;;;;;;;;;;;;;;;;;2089760;28;20365;-84
2021/12/23 04:20:03;;;;;;;;;;;;;;;;;;2089837;28;19944;-85
2021/12/23 04:21:03;;;;;;;;;;;;;;;;;;2089594;28;19913;-76
2021/12/23 04:22:03;;;;;;;;;;;;;;;;;;2089680;28;19960;-86
2021/12/23 04:23:04;;;;;;;;;;;;;;;;;;2089819;28;19967;-86
2021/12/23 04:24:05;;;;;;;;;;;;;;;;;;2081043;28;20322;-85
2021/12/23 04:25:08;;;;;;;;;;;;;;;;;;2081090;28;19924;-84
2021/12/23 04:26:09;;;;;;;;;;;;;;;;;;2081155;28;19913;-76
2021/12/23 04:27:09;;;;;;;;;;;;;;;;;;2081191;28;19948;-76
2021/12/23 04:28:10;;;;;;;;;;;;;;;;;;2089732;28;20189;-76
2021/12/23 04:29:10;;;;;;;;;;;;;;;;;;2089200;28;19948;-75
2021/12/23 04:30:13;;;;;;;;;;;;;;;;;;2089358;28;19912;-74
2021/12/23 04:31:18;;;;;;;;;;;;;;;;;;2089744;28;20358;-76
2021/12/23 04:32:19;;;;;;;;;;;;;;;;;;2089705;28;19924;-77
2021/12/23 04:33:19;;;;;;;;;;;;;;;;;;2089717;28;19978;-77
2021/12/23 04:34:19;;;;;;;;;;;;;;;;;;2089801;28;19975;-77
2021/12/23 04:35:20;;;;;;;;;;;;;;;;;;2080838;28;20377;-77
2021/12/23 04:36:21;;;;;;;;;;;;;;;;;;2081047;28;20028;-76
2021/12/23 04:37:21;;;;;;;;;;;;;;;;;;2089694;28;19920;-76
2021/12/23 04:38:24;;;;;;;;;;;;;;;;;;2081075;28;19913;-76
2021/12/23 04:39:24;;;;;;;;;;;;;;;;;;2081364;28;20362;-76
2021/12/23 04:40:25;;;;;;;;;;;;;;;;;;2089801;28;19919;-76
2021/12/23 04:41:25;;;;;;;;;;;;;;;;;;2089099;28;19917;-76
2021/12/23 04:42:26;;;;;;;;;;;;;;;;;;2081133;28;19913;-76
2021/12/23 04:43:26;;;;;;;;;;;;;;;;;;2081016;28;19924;-76
2021/12/23 04:44:28;;;;;;;;;;;;;;;;;;2089215;28;19912;-76
2021/12/23 04:45:29;;;;;;;;;;;;;;;;;;2081191;28;19913;-76
2021/12/23 04:46:29;;;;;;;;;;;;;;;;;;2089672;28;19913;-76
2021/12/23 04:47:29;;;;;;;;;;;;;;;;;;2089645;28;20263;-76
2021/12/23 04:48:30;;;;;;;;;;;;;;;;;;2089121;28;19913;-76
2021/12/23 04:49:30;;;;;;;;;;;;;;;;;;2089180;28;19912;-76
2021/12/23 04:50:30;;;;;;;;;;;;;;;;;;2080953;28;20185;-76
2021/12/23 04:51:30;;;;;;;;;;;;;;;;;;2089552;28;20328;-76
2021/12/23 04:52:31;;;;;;;;;;;;;;;;;;2080908;28;19913;-75
2021/12/23 04:53:31;;;;;;;;;;;;;;;;;;2080993;28;20092;-76
2021/12/23 04:54:31;;;;;;;;;;;;;;;;;;2089546;28;19970;-76
2021/12/23 04:55:34;;;;;;;;;;;;;;;;;;2089706;28;20308;-76
2021/12/23 04:56:34;;;;;;;;;;;;;;;;;;2089506;28;19921;-76
2021/12/23 04:57:34;;;;;;;;;;;;;;;;;;2089645;28;19913;-76
2021/12/23 04:58:35;;;;;;;;;;;;;;;;;;2089627;28;19912;-76
2021/12/23 04:59:35;;;;;;;;;;;;;;;;;;2089743;28;19943;-76
2021/12/23 05:00:35;;;;;;;;;;;;;;;;;;2089594;28;19917;-77
2021/12/23 05:01:36;;;;;;;;;;;;;;;;;;2080787;28;20012;-76
2021/12/23 05:02:36;;;;;;;;;;;;;;;;;;2080958;28;20046;-76
2021/12/23 05:03:36;;;;;;;;;;;;;;;;;;2089698;28;20411;-75
2021/12/23 05:04:36;;;;;;;;;;;;;;;;;;2089619;28;19912;-76
2021/12/23 05:05:37;;;;;;;;;;;;;;;;;;2089766;28;19924;-77
2021/12/23 05:06:37;;;;;;;;;;;;;;;;;;2089560;28;20007;-77
2021/12/23 05:07:38;;;;;;;;;;;;;;;;;;2089787;28;20018;-76
2021/12/23 05:08:38;;;;;;;;;;;;;;;;;;2089538;28;19920;-76
2021/12/23 05:09:38;;;;;;;;;;;;;;;;;;2089548;28;19916;-77
2021/12/23 05:10:39;;;;;;;;;;;;;;;;;;2080778;28;19967;-75
2021/12/23 05:11:39;;;;;;;;;;;;;;;;;;2080904;28;19913;-75
2021/12/23 05:12:43;;;;;;;;;;;;;;;;;;2089712;28;19912;-77
2021/12/23 05:13:45;;;;;;;;;;;;;;;;;;2089816;28;19913;-76
2021/12/23 05:14:45;;;;;;;;;;;;;;;;;;2090076;28;19913;-76
2021/12/23 05:15:45;;;;;;;;;;;;;;;;;;2090638;28;19978;-76
2021/12/23 05:16:45;;;;;;;;;;;;;;;;;;2082284;28;19932;-76
2021/12/23 05:17:47;;;;;;;;;;;;;;;;;;2082507;28;19917;-76
2021/12/23 05:18:47;;;;;;;;;;;;;;;;;;2082430;28;19948;-76
2021/12/23 05:19:47;;;;;;;;;;;;;;;;;;2082623;28;20285;-76
2021/12/23 05:20:48;;;;;;;;;;;;;;;;;;2091175;28;19916;-76
2021/12/23 05:21:49;;;;;;;;;;;;;;;;;;2091115;28;20357;-76
2021/12/23 05:22:49;;;;;;;;;;;;;;;;;;2082368;28;19928;-76
2021/12/23 05:23:49;;;;;;;;;;;;;;;;;;2082425;28;20358;-77
2021/12/23 05:24:50;;;;;;;;;;;;;;;;;;2091083;28;19923;-75
2021/12/23 05:25:50;;;;;;;;;;;;;;;;;;2091036;28;19913;-75
2021/12/23 05:26:50;;;;;;;;;;;;;;;;;;2091067;28;19913;-75
2021/12/23 05:27:52;;;;;;;;;;;;;;;;;;2091068;28;19912;-75
2021/12/23 05:28:52;;;;;;;;;;;;;;;;;;2091092;28;19913;-75
2021/12/23 05:29:53;;;;;;;;;;;;;;;;;;2091162;28;19921;-75
2021/12/23 05:30:53;;;;;;;;;;;;;;;;;;2091078;28;19913;-75
2021/12/23 05:31:53;;;;;;;;;;;;;;;;;;2091055;28;19920;-75
2021/12/23 05:32:54;;;;;;;;;;;;;;;;;;2091206;28;19912;-76
2021/12/23 05:33:55;;;;;;;;;;;;;;;;;;2091004;28;19924;-75
2021/12/23 05:34:55;;;;;;;;;;;;;;;;;;2091056;28;19913;-75
2021/12/23 05:35:55;;;;;;;;;;;;;;;;;;2090924;28;19913;-75
2021/12/23 05:36:55;;;;;;;;;;;;;;;;;;2091073;28;19921;-75
2021/12/23 05:37:56;;;;;;;;;;;;;;;;;;2091021;28;19917;-75
2021/12/23 05:38:56;;;;;;;;;;;;;;;;;;2091022;28;19923;-75
2021/12/23 05:39:56;;;;;;;;;;;;;;;;;;2091081;28;19982;-75
2021/12/23 05:40:57;;;;;;;;;;;;;;;;;;2091073;28;19932;-86
2021/12/23 05:41:57;;;;;;;;;;;;;;;;;;2090954;28;19912;-87
2021/12/23 05:42:58;;;;;;;;;;;;;;;;;;2091031;28;20443;-86
2021/12/23 05:43:58;;;;;;;;;;;;;;;;;;2082211;28;19952;-85
2021/12/23 05:44:58;;;;;;;;;;;;;;;;;;2082331;28;20306;-85
2021/12/23 05:46:00;;;;;;;;;;;;;;;;;;2090757;28;19912;-86
2021/12/23 05:47:00;;;;;;;;;;;;;;;;;;2082475;28;20338;-86
2021/12/23 05:48:02;;;;;;;;;;;;;;;;;;2082363;28;20011;-86
2021/12/23 05:49:03;;;;;;;;;;;;;;;;;;2090905;28;19982;-86
2021/12/23 05:50:03;;;;;;;;;;;;;;;;;;2090987;28;19921;-86
2021/12/23 05:51:04;;;;;;;;;;;;;;;;;;2090299;28;19912;-87
2021/12/23 05:52:04;;;;;;;;;;;;;;;;;;2090606;28;20452;-86
2021/12/23 05:53:04;;;;;;;;;;;;;;;;;;2090970;28;19913;-86
2021/12/23 05:54:05;;;;;;;;;;;;;;;;;;2082123;28;19943;-87
2021/12/23 05:55:06;;;;;;;;;;;;;;;;;;2082294;28;19960;-85
2021/12/23 05:56:06;;;;;;;;;;;;;;;;;;2090736;28;20305;-85
2021/12/23 05:57:08;;;;;;;;;;;;;;;;;;2090896;28;20232;-85
2021/12/23 05:58:08;;;;;;;;;;;;;;;;;;2090896;28;20332;-86
2021/12/23 05:59:08;;;;;;;;;;;;;;;;;;2082167;28;19913;-86
2021/12/23 06:00:10;;;;;;;;;;;;;;;;;;2082180;28;20273;-84
2021/12/23 06:01:11;;;;;;;;;;;;;;;;;;2090285;28;19917;-85
2021/12/23 06:02:11;;;;;;;;;;;;;;;;;;2090529;28;19913;-85
2021/12/23 06:03:11;;;;;;;;;;;;;;;;;;2090941;28;19917;-85
2021/12/23 06:04:12;;;;;;;;;;;;;;;;;;2091703;28;20411;-85
2021/12/23 06:05:12;;;;;;;;;;;;;;;;;;2091410;28;19952;-86
2021/12/23 06:06:13;;;;;;;;;;;;;;;;;;2090859;28;19963;-87
2021/12/23 06:07:14;;;;;;;;;;;;;;;;;;2090714;28;19951;-86
2021/12/23 06:08:14;;;;;;;;;;;;;;;;;;2093961;28;19913;-87
2021/12/23 06:09:17;;;;;;;;;;;;;;;;;;2095277;28;19990;-88
2021/12/23 06:10:18;;;;;;;;;;;;;;;;;;2095766;28;19924;-87
2021/12/23 06:11:21;;;;;;;;;;;;;;;;;;2094181;28;19976;-87
2021/12/23 06:12:21;;;;;;;;;;;;;;;;;;2090880;28;19931;-87
2021/12/23 06:13:21;;;;;;;;;;;;;;;;;;2090781;28;19913;-87
2021/12/23 06:14:22;;;;;;;;;;;;;;;;;;2082139;28;19916;-87
2021/12/23 06:15:22;;;;;;;;;;;;;;;;;;2081866;28;19924;-87
2021/12/23 06:16:22;;;;;;;;;;;;;;;;;;2090755;28;19917;-87
2021/12/23 06:17:22;;;;;;;;;;;;;;;;;;2091512;28;19912;-86
2021/12/23 06:18:23;;;;;;;;;;;;;;;;;;2091707;28;19913;-86
2021/12/23 06:19:23;;;;;;;;;;;;;;;;;;2082031;28;20000;-87
2021/12/23 06:20:23;;;;;;;;;;;;;;;;;;2073706;28;20522;-85
2021/12/23 06:21:27;;;;;;;;;;;;;;;;;;2082006;28;19917;-86
2021/12/23 06:22:28;;;;;;;;;;;;;;;;;;2090909;28;20073;-85
2021/12/23 06:23:28;;;;;;;;;;;;;;;;;;2090511;28;20031;-85
2021/12/23 06:24:28;;;;;;;;;;;;;;;;;;2090353;28;19948;-87
2021/12/23 06:25:29;;;;;;;;;;;;;;;;;;2090527;28;19912;-86
2021/12/23 06:26:30;;;;;;;;;;;;;;;;;;2082041;28;20185;-87
2021/12/23 06:27:30;;;;;;;;;;;;;;;;;;2083125;28;19913;-86
2021/12/23 06:28:30;;;;;;;;;;;;;;;;;;2091152;28;20007;-86
2021/12/23 06:29:31;;;;;;;;;;;;;;;;;;2090571;28;19913;-86
2021/12/23 06:30:31;;;;;;;;;;;;;;;;;;2090591;28;20293;-86
2021/12/23 06:31:31;;;;;;;;;;;;;;;;;;2090628;28;19913;-86
2021/12/23 06:32:32;;;;;;;;;;;;;;;;;;2090648;28;19939;-86
2021/12/23 06:33:32;;;;;;;;;;;;;;;;;;2090682;28;20003;-87
2021/12/23 06:34:32;;;;;;;;;;;;;;;;;;2090662;28;20354;-86
2021/12/23 06:35:33;;;;;;;;;;;;;;;;;;2090551;28;19956;-86
2021/12/23 06:36:33;;;;;;;;;;;;;;;;;;2090589;28;20297;-85
2021/12/23 06:37:34;;;;;;;;;;;;;;;;;;2090170;28;19913;-87
2021/12/23 06:38:35;;;;;;;;;;;;;;;;;;2090193;28;19912;-85
2021/12/23 06:39:35;;;;;;;;;;;;;;;;;;2090655;28;19974;-85
2021/12/23 06:40:36;;;;;;;;;;;;;;;;;;2081850;28;20332;-85
2021/12/23 06:41:36;;;;;;;;;;;;;;;;;;2081828;28;19999;-86
2021/12/23 06:42:37;;;;;;;;;;;;;;;;;;2090025;28;19920;-87
2021/12/23 06:43:37;;;;;;;;;;;;;;;;;;2082063;28;20390;-85
2021/12/23 06:44:40;;;;;;;;;;;;;;;;;;2090450;28;19948;-85
2021/12/23 06:45:40;;;;;;;;;;;;;;;;;;2090558;28;20004;-85
2021/12/23 06:46:40;;;;;;;;;;;;;;;;;;2090436;28;20235;-86
2021/12/23 06:47:41;;;;;;;;;;;;;;;;;;2090113;28;19921;-85
2021/12/23 06:48:41;;;;;;;;;;;;;;;;;;2089982;28;19956;-85
2021/12/23 06:49:42;;;;;;;;;;;;;;;;;;2090012;28;20014;-85
2021/12/23 06:50:42;;;;;;;;;;;;;;;;;;2081759;28;19956;-86
2021/12/23 06:51:43;;;;;;;;;;;;;;;;;;2081840;28;19913;-86
2021/12/23 06:52:43;;;;;;;;;;;;;;;;;;2090511;28;19916;-86
2021/12/23 06:53:43;;;;;;;;;;;;;;;;;;2090449;28;19912;-86
2021/12/23 06:54:46;;;;;;;;;;;;;;;;;;2090489;28;19966;-86
2021/12/23 06:55:47;;;;;;;;;;;;;;;;;;2089809;28;20012;-86
2021/12/23 06:56:47;;;;;;;;;;;;;;;;;;2089737;28;20365;-85
2021/12/23 06:57:53;;;;;;;;;;;;;;;;;;2081683;28;19924;-85
2021/12/23 06:58:53;;;;;;;;;;;;;;;;;;2090418;28;20374;-86
2021/12/23 06:59:54;;;;;;;;;;;;;;;;;;2090376;28;19974;-85
2021/12/23 07:00:54;;;;;;;;;;;;;;;;;;2089876;28;19924;-86
2021/12/23 07:01:55;;;;;;;;;;;;;;;;;;2081660;28;20066;-86
2021/12/23 07:02:56;;;;;;;;;;;;;;;;;;2073398;28;19914;-85